createdAt,value
2022-12-26T00:00:51.698Z,8.50
2022-12-26T00:03:36.792Z,8.50
2022-12-26T00:06:04.683Z,8.50
2022-12-26T00:08:32.394Z,8.50
2022-12-26T00:10:59.426Z,8.50
2022-12-26T00:13:39.913Z,8.50
2022-12-26T00:16:18.957Z,8.50
2022-12-26T00:18:47.211Z,8.40
2022-12-26T00:21:18.187Z,8.50
2022-12-26T00:23:46.159Z,8.40
2022-12-26T00:26:16.716Z,8.40
2022-12-26T00:28:47.246Z,8.40
2022-12-26T00:31:27.169Z,8.40
2022-12-26T00:33:55.135Z,8.50
2022-12-26T00:36:24.699Z,8.50
2022-12-26T00:38:52.307Z,8.50
2022-12-26T00:41:24.374Z,8.60
2022-12-26T00:43:52.637Z,8.60
2022-12-26T00:46:20.672Z,8.70
2022-12-26T00:48:48.332Z,8.70
2022-12-26T00:51:18.205Z,8.70
2022-12-26T00:53:48.357Z,8.80
2022-12-26T00:56:15.857Z,8.80
2022-12-26T00:58:43.619Z,8.90
2022-12-26T01:01:18.607Z,9.00
2022-12-26T01:03:47.748Z,9.00
2022-12-26T01:06:17.639Z,9.00
2022-12-26T01:08:45.063Z,9.00
2022-12-26T01:11:17.717Z,9.00
2022-12-26T01:13:47.439Z,8.90
2022-12-26T01:16:14.611Z,8.80
2022-12-26T01:18:42.025Z,8.80
2022-12-26T01:21:11.067Z,8.70
2022-12-26T01:23:38.555Z,8.60
2022-12-26T01:26:15.156Z,8.60
2022-12-26T01:28:43.798Z,8.60
2022-12-26T01:31:10.972Z,8.50
2022-12-26T01:33:38.506Z,8.50
2022-12-26T01:36:06.420Z,8.40
2022-12-26T01:38:33.786Z,8.40
2022-12-26T01:41:01.179Z,8.30
2022-12-26T01:43:57.589Z,8.30
2022-12-26T01:46:40.429Z,8.30
2022-12-26T01:49:39.874Z,8.20
2022-12-26T01:52:10.361Z,8.20
2022-12-26T01:54:43.076Z,8.20
2022-12-26T01:57:38.699Z,8.20
2022-12-26T02:00:07.982Z,8.20
2022-12-26T02:02:38.400Z,8.20
2022-12-26T02:05:06.054Z,8.10
2022-12-26T02:07:35.975Z,8.10
2022-12-26T02:10:05.269Z,8.10
2022-12-26T02:12:38.778Z,8.00
2022-12-26T02:15:15.243Z,8.00
2022-12-26T02:17:43.071Z,8.00
2022-12-26T02:20:20.727Z,8.00
2022-12-26T02:22:56.980Z,8.10
2022-12-26T02:25:49.151Z,8.00
2022-12-26T02:28:53.827Z,8.00
2022-12-26T02:31:43.049Z,8.10
2022-12-26T02:34:54.411Z,8.10
2022-12-26T02:37:45.015Z,8.10
2022-12-26T02:40:30.413Z,8.10
2022-12-26T02:43:11.741Z,8.10
2022-12-26T02:45:47.367Z,8.20
2022-12-26T02:48:31.042Z,8.20
2022-12-26T02:51:16.169Z,8.20
2022-12-26T02:53:52.885Z,8.20
2022-12-26T02:56:31.865Z,8.20
2022-12-26T02:59:14.261Z,8.20
2022-12-26T03:01:46.154Z,8.20
2022-12-26T03:04:16.283Z,8.20
2022-12-26T03:06:56.399Z,8.10
2022-12-26T03:09:28.515Z,8.20
2022-12-26T03:12:01.309Z,8.10
2022-12-26T03:14:32.426Z,8.10
2022-12-26T03:17:10.265Z,8.10
2022-12-26T03:19:39.899Z,8.10
2022-12-26T03:22:10.501Z,8.10
2022-12-26T03:24:40.481Z,8.20
2022-12-26T03:27:10.426Z,8.20
2022-12-26T03:29:37.852Z,8.20
2022-12-26T03:32:09.784Z,8.10
2022-12-26T03:34:44.045Z,8.10
2022-12-26T03:37:20.070Z,8.10
2022-12-26T03:40:08.615Z,8.00
2022-12-26T03:42:42.055Z,8.10
2022-12-26T03:45:46.130Z,8.10
2022-12-26T03:48:26.481Z,8.10
2022-12-26T03:51:04.567Z,8.10
2022-12-26T03:53:34.431Z,8.10
2022-12-26T03:56:06.979Z,8.10
2022-12-26T03:58:49.612Z,8.10
2022-12-26T04:01:24.341Z,8.20
2022-12-26T04:03:56.271Z,8.30
2022-12-26T04:06:29.778Z,8.30
2022-12-26T04:09:07.576Z,8.30
2022-12-26T04:11:40.098Z,8.30
2022-12-26T04:14:14.544Z,8.30
2022-12-26T04:16:58.362Z,8.30
2022-12-26T04:19:28.267Z,8.40
2022-12-26T04:22:14.409Z,8.40
2022-12-26T04:24:48.883Z,8.40
2022-12-26T04:27:19.820Z,8.40
2022-12-26T04:29:49.430Z,8.40
2022-12-26T04:32:33.290Z,8.40
2022-12-26T04:35:39.448Z,8.40
2022-12-26T04:38:10.885Z,8.40
2022-12-26T04:40:44.770Z,8.50
2022-12-26T04:43:49.086Z,8.60
2022-12-26T04:46:01.812Z,8.60
2022-12-26T04:48:32.361Z,8.60
2022-12-26T04:50:59.464Z,8.60
2022-12-26T04:53:29.189Z,8.60
2022-12-26T04:55:58.793Z,8.60
2022-12-26T04:58:28.749Z,8.70
2022-12-26T05:00:56.012Z,8.70
2022-12-26T05:03:23.396Z,8.70
2022-12-26T05:05:54.004Z,8.60
2022-12-26T05:08:35.685Z,8.60
2022-12-26T05:11:02.756Z,8.60
2022-12-26T05:13:32.438Z,8.60
2022-12-26T05:15:59.604Z,8.50
2022-12-26T05:18:27.015Z,8.60
2022-12-26T05:20:56.511Z,8.50
2022-12-26T05:23:27.009Z,8.50
2022-12-26T05:25:56.550Z,8.50
2022-12-26T05:28:24.447Z,8.50
2022-12-26T05:30:51.543Z,8.40
2022-12-26T05:33:18.925Z,8.50
2022-12-26T05:35:46.243Z,8.40
2022-12-26T05:38:13.651Z,8.50
2022-12-26T05:40:42.949Z,8.40
2022-12-26T05:43:10.511Z,8.40
2022-12-26T05:45:40.054Z,8.40
2022-12-26T05:48:09.960Z,8.40
2022-12-26T05:50:37.235Z,8.40
2022-12-26T05:53:04.593Z,8.40
2022-12-26T05:55:36.443Z,8.40
2022-12-26T05:58:04.025Z,8.40
2022-12-26T06:00:31.528Z,8.40
2022-12-26T06:03:00.464Z,8.40
2022-12-26T06:05:29.181Z,8.40
2022-12-26T06:07:56.619Z,8.40
2022-12-26T06:10:23.908Z,8.40
2022-12-26T06:12:51.513Z,8.40
2022-12-26T06:15:18.784Z,8.40
2022-12-26T06:17:48.878Z,8.40
2022-12-26T06:20:16.153Z,8.40
2022-12-26T06:22:46.191Z,8.40
2022-12-26T06:25:15.519Z,8.40
2022-12-26T06:27:43.611Z,8.40
2022-12-26T06:30:11.094Z,8.40
2022-12-26T06:32:38.607Z,8.40
2022-12-26T06:35:06.381Z,8.40
2022-12-26T06:37:34.376Z,8.50
2022-12-26T06:40:01.689Z,8.50
2022-12-26T06:42:29.347Z,8.50
2022-12-26T06:44:56.522Z,8.50
2022-12-26T06:47:24.005Z,8.50
2022-12-26T06:49:53.417Z,8.50
2022-12-26T06:52:23.006Z,8.50
2022-12-26T06:54:52.689Z,8.50
2022-12-26T06:57:20.189Z,8.50
2022-12-26T06:59:47.300Z,8.60
2022-12-26T07:02:17.004Z,8.60
2022-12-26T07:04:46.526Z,8.60
2022-12-26T07:07:13.916Z,8.60
2022-12-26T07:09:43.300Z,8.50
2022-12-26T07:12:10.788Z,8.60
2022-12-26T07:14:37.989Z,8.50
2022-12-26T07:17:05.456Z,8.60
2022-12-26T07:19:35.351Z,8.60
2022-12-26T07:22:02.795Z,8.70
2022-12-26T07:24:29.976Z,8.70
2022-12-26T07:26:57.500Z,8.80
2022-12-26T07:29:24.740Z,8.90
2022-12-26T07:31:52.355Z,9.10
2022-12-26T07:34:19.750Z,9.40
2022-12-26T07:36:47.554Z,9.90
2022-12-26T07:39:17.116Z,10.00
2022-12-26T07:41:44.678Z,10.10
2022-12-26T07:44:11.925Z,10.50
2022-12-26T07:46:43.953Z,11.00
2022-12-26T07:49:12.283Z,11.20
2022-12-26T07:51:42.543Z,11.30
2022-12-26T07:54:11.615Z,12.00
2022-12-26T07:56:40.622Z,13.00
2022-12-26T07:59:17.924Z,13.80
2022-12-26T08:01:45.745Z,13.20
2022-12-26T08:04:15.175Z,12.50
2022-12-26T08:06:42.873Z,12.10
2022-12-26T08:09:15.578Z,11.50
2022-12-26T08:11:43.648Z,11.10
2022-12-26T08:14:14.339Z,11.00
2022-12-26T08:16:44.483Z,11.70
2022-12-26T08:19:14.033Z,11.80
2022-12-26T08:21:41.427Z,11.50
2022-12-26T08:24:08.694Z,11.20
2022-12-26T08:26:36.141Z,11.10
2022-12-26T08:29:05.431Z,11.00
2022-12-26T08:31:35.346Z,11.00
2022-12-26T08:34:02.528Z,10.90
2022-12-26T08:36:32.136Z,10.90
2022-12-26T08:38:59.437Z,11.00
2022-12-26T08:41:26.884Z,10.90
2022-12-26T08:46:45.003Z,10.80
2022-12-26T08:49:12.496Z,10.60
2022-12-26T08:51:39.895Z,10.50
2022-12-26T08:54:07.115Z,10.20
2022-12-26T08:56:34.511Z,10.10
2022-12-26T08:59:01.581Z,10.00
2022-12-26T09:01:30.921Z,10.00
2022-12-26T09:04:01.586Z,9.90
2022-12-26T09:06:31.772Z,10.10
2022-12-26T09:09:00.129Z,12.10
2022-12-26T09:11:28.187Z,13.50
2022-12-26T09:14:00.862Z,13.70
2022-12-26T09:16:37.149Z,13.40
2022-12-26T09:19:06.231Z,13.30
2022-12-26T09:21:36.449Z,14.50
2022-12-26T09:24:10.330Z,16.80
2022-12-26T09:26:41.645Z,20.00
2022-12-26T09:29:13.082Z,22.50
2022-12-26T09:31:40.859Z,24.80
2022-12-26T09:34:08.334Z,26.90
2022-12-26T09:36:39.717Z,28.60
2022-12-26T09:39:07.691Z,30.40
2022-12-26T09:41:53.315Z,31.60
2022-12-26T09:45:00.600Z,31.80
2022-12-26T09:47:32.044Z,32.00
2022-12-26T09:50:14.957Z,32.10
2022-12-26T09:52:50.354Z,32.80
2022-12-26T09:55:30.210Z,32.70
2022-12-26T09:58:04.224Z,31.50
2022-12-26T10:00:43.372Z,29.20
2022-12-26T10:03:12.970Z,25.90
2022-12-26T10:05:59.575Z,22.80
2022-12-26T10:08:46.182Z,20.40
2022-12-26T10:11:45.069Z,18.60
2022-12-26T10:14:34.253Z,17.50
2022-12-26T10:17:26.116Z,16.60
2022-12-26T10:20:21.991Z,16.10
2022-12-26T10:23:12.853Z,15.90
2022-12-26T10:25:58.261Z,15.40
2022-12-26T10:28:37.383Z,15.10
2022-12-26T10:31:12.529Z,15.00
2022-12-26T10:34:03.597Z,14.70
2022-12-26T10:36:48.616Z,14.40
2022-12-26T10:39:40.835Z,14.30
2022-12-26T10:42:38.745Z,14.10
2022-12-26T10:45:16.174Z,14.00
2022-12-26T10:47:48.641Z,13.70
2022-12-26T10:50:27.572Z,13.40
2022-12-26T10:52:57.136Z,13.20
2022-12-26T10:55:34.756Z,12.90
2022-12-26T10:58:33.684Z,12.80
2022-12-26T11:01:38.799Z,12.60
2022-12-26T11:07:11.591Z,13.00
2022-12-26T11:09:43.203Z,13.00
2022-12-26T11:12:25.273Z,12.80
2022-12-26T11:14:59.834Z,12.60
2022-12-26T11:17:40.324Z,12.50
2022-12-26T11:20:21.236Z,12.40
2022-12-26T11:22:48.740Z,12.30
2022-12-26T11:25:20.797Z,12.30
2022-12-26T11:27:59.317Z,12.40
2022-12-26T11:30:33.927Z,12.60
2022-12-26T11:33:14.441Z,12.60
2022-12-26T11:35:50.239Z,12.50
2022-12-26T11:38:21.347Z,12.30
2022-12-26T11:40:49.385Z,12.30
2022-12-26T11:43:18.933Z,12.30
2022-12-26T11:45:52.738Z,12.40
2022-12-26T11:48:25.116Z,12.40
2022-12-26T11:50:55.442Z,12.40
2022-12-26T11:53:23.451Z,12.40
2022-12-26T11:56:10.059Z,12.30
2022-12-26T11:58:37.295Z,12.20
2022-12-26T12:01:12.049Z,12.20
2022-12-26T12:03:50.039Z,12.20
2022-12-26T12:06:20.880Z,12.30
2022-12-26T12:09:05.803Z,12.40
2022-12-26T12:11:45.615Z,12.60
2022-12-26T12:14:22.211Z,12.60
2022-12-26T12:17:11.290Z,12.70
2022-12-26T12:19:55.745Z,12.60
2022-12-26T12:22:26.175Z,12.50
2022-12-26T12:25:16.318Z,12.40
2022-12-26T12:28:28.288Z,12.30
2022-12-26T12:31:18.548Z,12.20
2022-12-26T12:33:52.734Z,12.00
2022-12-26T12:36:44.348Z,12.00
2022-12-26T12:39:34.450Z,12.10
2022-12-26T12:42:09.379Z,12.30
2022-12-26T12:45:08.957Z,12.50
2022-12-26T12:48:08.182Z,12.50
2022-12-26T12:50:56.834Z,12.40
2022-12-26T12:53:34.089Z,12.30
2022-12-26T12:56:15.532Z,12.20
2022-12-26T12:59:05.895Z,12.00
2022-12-26T13:01:44.864Z,11.90
2022-12-26T13:04:19.970Z,11.80
2022-12-26T13:07:14.652Z,11.80
2022-12-26T13:09:51.239Z,11.60
2022-12-26T13:12:25.604Z,11.50
2022-12-26T13:14:55.981Z,11.40
2022-12-26T13:17:35.403Z,11.40
2022-12-26T13:20:13.295Z,11.30
2022-12-26T13:22:53.530Z,11.30
2022-12-26T13:25:24.774Z,11.10
2022-12-26T13:27:55.002Z,11.10
2022-12-26T13:30:22.746Z,11.00
2022-12-26T13:32:56.052Z,10.90
2022-12-26T13:35:53.979Z,10.90
2022-12-26T13:38:23.260Z,10.80
2022-12-26T13:40:59.622Z,10.70
2022-12-26T13:43:27.184Z,10.70
2022-12-26T13:45:57.445Z,10.60
2022-12-26T13:48:28.183Z,10.60
2022-12-26T13:51:00.462Z,10.70
2022-12-26T13:53:40.631Z,10.80
2022-12-26T13:56:18.336Z,10.80
2022-12-26T13:59:04.730Z,10.80
2022-12-26T14:02:01.418Z,10.70
2022-12-26T14:04:47.609Z,10.70
2022-12-26T14:07:39.448Z,10.60
2022-12-26T14:10:23.075Z,10.60
2022-12-26T14:13:26.895Z,10.50
2022-12-26T14:16:16.156Z,10.50
2022-12-26T14:19:03.643Z,10.40
2022-12-26T14:22:08.068Z,10.40
2022-12-26T14:24:42.267Z,10.40
2022-12-26T14:27:32.357Z,10.30
2022-12-26T14:30:17.362Z,10.20
2022-12-26T14:32:50.681Z,10.20
2022-12-26T14:35:31.572Z,10.20
2022-12-26T14:38:10.847Z,10.20
2022-12-26T14:40:39.187Z,10.20
2022-12-26T14:43:33.336Z,10.20
2022-12-26T14:46:26.429Z,10.20
2022-12-26T14:48:57.571Z,10.20
2022-12-26T14:51:32.750Z,10.20
2022-12-26T14:54:22.586Z,10.20
2022-12-26T14:56:51.221Z,10.20
2022-12-26T14:59:24.324Z,10.20
2022-12-26T15:02:07.321Z,10.20
2022-12-26T15:04:57.898Z,10.20
2022-12-26T15:07:27.833Z,10.20
2022-12-26T15:10:16.823Z,10.20
2022-12-26T15:13:05.006Z,10.30
2022-12-26T15:15:50.648Z,10.30
2022-12-26T15:18:42.631Z,10.30
2022-12-26T15:21:19.051Z,10.30
2022-12-26T15:24:14.227Z,10.30
2022-12-26T15:26:56.955Z,10.20
2022-12-26T15:29:49.342Z,10.20
2022-12-26T15:32:49.080Z,10.10
2022-12-26T15:35:28.202Z,10.20
2022-12-26T15:38:19.670Z,10.10
2022-12-26T15:41:29.132Z,10.10
2022-12-26T15:44:11.514Z,10.10
2022-12-26T15:46:46.809Z,10.10
2022-12-26T15:49:36.315Z,10.10
2022-12-26T15:52:28.147Z,10.10
2022-12-26T15:55:06.345Z,10.00
2022-12-26T15:57:45.625Z,10.10
2022-12-26T16:00:38.315Z,10.10
2022-12-26T16:03:32.693Z,10.20
2022-12-26T16:06:25.345Z,10.20
2022-12-26T16:09:27.386Z,10.20
2022-12-26T16:11:56.046Z,10.20
2022-12-26T16:14:34.279Z,10.20
2022-12-26T16:17:13.846Z,10.20
2022-12-26T16:19:43.429Z,10.10
2022-12-26T16:22:25.230Z,10.20
2022-12-26T16:24:57.318Z,10.10
2022-12-26T16:27:25.709Z,10.10
2022-12-26T16:30:02.093Z,10.20
2022-12-26T16:32:37.528Z,10.10
2022-12-26T16:35:06.976Z,10.10
2022-12-26T16:37:34.828Z,10.00
2022-12-26T16:40:22.115Z,10.00
2022-12-26T16:43:21.319Z,10.10
2022-12-26T16:45:51.165Z,10.10
2022-12-26T16:48:24.104Z,10.10
2022-12-26T16:51:15.351Z,10.10
2022-12-26T16:53:44.725Z,10.10
2022-12-26T16:56:23.536Z,10.10
2022-12-26T16:59:03.960Z,10.10
2022-12-26T17:01:32.784Z,10.10
2022-12-26T17:04:17.289Z,10.10
2022-12-26T17:06:51.527Z,10.10
2022-12-26T17:09:27.142Z,10.10
2022-12-26T17:11:58.861Z,10.10
2022-12-26T17:14:38.778Z,10.10
2022-12-26T17:17:36.729Z,10.00
2022-12-26T17:20:22.670Z,10.00
2022-12-26T17:22:51.544Z,10.00
2022-12-26T17:25:26.947Z,10.00
2022-12-26T17:28:09.167Z,10.00
2022-12-26T17:30:37.514Z,10.00
2022-12-26T17:33:28.519Z,10.00
2022-12-26T17:38:45.557Z,10.00
2022-12-26T17:41:16.344Z,10.00
2022-12-26T17:43:44.887Z,10.00
2022-12-26T17:46:15.441Z,10.00
2022-12-26T17:48:43.726Z,10.00
2022-12-26T17:51:18.820Z,10.00
2022-12-26T17:53:51.263Z,10.00
2022-12-26T17:56:21.402Z,10.00
2022-12-26T17:58:51.324Z,10.00
2022-12-26T18:01:21.312Z,9.90
2022-12-26T18:03:49.742Z,9.90
2022-12-26T18:06:17.715Z,9.90
2022-12-26T18:08:45.421Z,10.00
2022-12-26T18:11:14.428Z,10.10
2022-12-26T18:13:42.130Z,10.10
2022-12-26T18:16:16.617Z,10.10
2022-12-26T18:18:45.973Z,10.20
2022-12-26T18:21:15.945Z,10.20
2022-12-26T18:23:43.484Z,10.20
2022-12-26T18:26:26.576Z,10.10
2022-12-26T18:28:54.081Z,10.10
2022-12-26T18:31:21.839Z,10.20
2022-12-26T18:33:50.471Z,10.20
2022-12-26T18:36:18.289Z,10.20
2022-12-26T18:38:45.662Z,10.20
2022-12-26T18:41:20.375Z,10.20
2022-12-26T18:43:48.300Z,10.20
2022-12-26T18:46:21.623Z,10.10
2022-12-26T18:48:49.670Z,10.10
2022-12-26T18:51:19.807Z,10.10
2022-12-26T18:53:49.775Z,10.00
2022-12-26T18:56:20.756Z,9.90
2022-12-26T18:58:55.567Z,9.90
2022-12-26T19:01:26.156Z,9.90
2022-12-26T19:03:56.111Z,9.80
2022-12-26T19:06:26.836Z,9.80
2022-12-26T19:08:54.329Z,9.80
2022-12-26T19:11:22.216Z,9.80
2022-12-26T19:13:51.723Z,9.80
2022-12-26T19:16:19.779Z,9.80
2022-12-26T19:18:46.907Z,9.80
2022-12-26T19:21:16.278Z,9.80
2022-12-26T19:23:46.674Z,9.90
2022-12-26T19:26:16.516Z,9.90
2022-12-26T19:28:49.975Z,10.00
2022-12-26T19:31:20.131Z,10.00
2022-12-26T19:33:47.423Z,10.00
2022-12-26T19:36:15.907Z,10.10
2022-12-26T19:38:45.545Z,10.10
2022-12-26T19:41:15.498Z,10.10
2022-12-26T19:43:42.830Z,10.10
2022-12-26T19:46:16.039Z,10.10
2022-12-26T19:48:44.088Z,10.10
2022-12-26T19:51:13.499Z,10.00
2022-12-26T19:53:41.017Z,10.00
2022-12-26T19:56:12.820Z,9.90
2022-12-26T19:58:40.668Z,9.90
2022-12-26T20:01:13.779Z,9.80
2022-12-26T20:03:43.774Z,9.80
2022-12-26T20:06:15.551Z,9.80
2022-12-26T20:08:43.683Z,9.80
2022-12-26T20:11:19.218Z,9.70
2022-12-26T20:13:47.116Z,9.60
2022-12-26T20:16:45.813Z,9.60
2022-12-26T20:19:07.044Z,9.50
2022-12-26T20:21:36.938Z,9.50
2022-12-26T20:24:04.493Z,9.40
2022-12-26T20:26:32.094Z,9.50
2022-12-26T20:29:00.855Z,9.40
2022-12-26T20:31:29.562Z,9.50
2022-12-26T20:34:00.567Z,9.50
2022-12-26T20:36:32.451Z,9.50
2022-12-26T20:39:02.378Z,9.50
2022-12-26T20:41:30.358Z,9.50
2022-12-26T20:43:57.614Z,9.60
2022-12-26T20:46:28.340Z,9.60
2022-12-26T20:48:58.153Z,9.60
2022-12-26T20:51:33.180Z,9.60
2022-12-26T20:54:04.865Z,9.60
2022-12-26T20:56:32.482Z,9.60
2022-12-26T20:59:01.882Z,9.60
2022-12-26T21:01:29.557Z,9.70
2022-12-26T21:03:57.826Z,9.60
2022-12-26T21:06:31.450Z,9.70
2022-12-26T21:08:58.838Z,9.70
2022-12-26T21:11:33.543Z,9.70
2022-12-26T21:14:03.721Z,9.70
2022-12-26T21:16:40.598Z,9.70
2022-12-26T21:19:14.646Z,9.70
2022-12-26T21:21:46.677Z,9.70
2022-12-26T21:24:20.031Z,9.70
2022-12-26T21:26:47.782Z,9.60
2022-12-26T21:29:27.992Z,9.60
2022-12-26T21:31:56.103Z,9.60
2022-12-26T21:34:25.693Z,9.60
2022-12-26T21:36:53.735Z,9.70
2022-12-26T21:39:23.409Z,9.60
2022-12-26T21:41:53.350Z,9.60
2022-12-26T21:44:22.861Z,9.70
2022-12-26T21:46:50.374Z,9.60
2022-12-26T21:49:17.667Z,9.60
2022-12-26T21:51:45.088Z,9.60
2022-12-26T21:54:12.209Z,9.60
2022-12-26T21:56:41.939Z,9.60
2022-12-26T21:59:12.129Z,9.60
2022-12-26T22:01:39.524Z,9.50
2022-12-26T22:04:09.350Z,9.50
2022-12-26T22:06:37.831Z,9.40
2022-12-26T22:09:08.515Z,9.30
2022-12-26T22:11:38.555Z,9.30
2022-12-26T22:14:05.778Z,9.20
2022-12-26T22:16:33.187Z,9.20
2022-12-26T22:19:00.306Z,9.10
2022-12-26T22:21:29.984Z,9.00
2022-12-26T22:23:57.127Z,9.00
2022-12-26T22:26:28.109Z,9.00
2022-12-26T22:28:56.854Z,9.00
2022-12-26T22:31:26.083Z,8.90
2022-12-26T22:33:59.055Z,8.90
2022-12-26T22:36:27.155Z,8.80
2022-12-26T22:38:55.411Z,8.80
2022-12-26T22:41:22.836Z,8.80
2022-12-26T22:43:49.934Z,8.80
2022-12-26T22:46:19.751Z,8.70
2022-12-26T22:48:47.077Z,8.70
2022-12-26T22:51:25.817Z,8.70
2022-12-26T22:53:55.407Z,8.70
2022-12-26T22:56:22.943Z,8.60
2022-12-26T22:58:54.564Z,8.70
2022-12-26T23:01:25.294Z,8.70
2022-12-26T23:03:52.429Z,8.70
2022-12-26T23:06:22.973Z,8.60
2022-12-26T23:08:51.766Z,8.60
2022-12-26T23:11:22.050Z,8.60
2022-12-26T23:13:49.971Z,8.50
2022-12-26T23:16:35.512Z,8.40
2022-12-26T23:19:31.499Z,8.30
2022-12-26T23:22:00.882Z,8.30
2022-12-26T23:24:29.952Z,8.20
2022-12-26T23:26:59.933Z,8.20
2022-12-26T23:29:27.217Z,8.20
2022-12-26T23:31:59.507Z,8.10
2022-12-26T23:34:29.633Z,8.10
2022-12-26T23:36:57.319Z,8.10
2022-12-26T23:39:26.963Z,8.10
2022-12-26T23:41:54.643Z,8.00
2022-12-26T23:44:22.009Z,8.00
2022-12-26T23:46:49.690Z,8.00
2022-12-26T23:49:16.979Z,8.10
2022-12-26T23:51:44.578Z,8.10
2022-12-26T23:54:11.612Z,8.20
2022-12-26T23:56:39.082Z,8.20
2022-12-26T23:59:06.488Z,8.30
